sensor_id;sensor_type;location;lat;lon;timestamp;pressure;altitude;pressure_sealevel;temperature;humidity
11499;BME280;5806;48.748;9.278;2023-07-28T00:00:20;100014.34;;;17.05;100.00
11499;BME280;5806;48.748;9.278;2023-07-28T00:02:48;100017.80;;;17.13;100.00
11499;BME280;5806;48.748;9.278;2023-07-28T00:05:15;100018.65;;;17.11;100.00
11499;BME280;5806;48.748;9.278;2023-07-28T00:07:42;100013.80;;;17.05;100.00
11499;BME280;5806;48.748;9.278;2023-07-28T00:10:11;100020.13;;;17.06;100.00
11499;BME280;5806;48.748;9.278;2023-07-28T00:12:38;100016.23;;;17.07;100.00
11499;BME280;5806;48.748;9.278;2023-07-28T00:15:06;100010.98;;;17.08;100.00
11499;BME280;5806;48.748;9.278;2023-07-28T00:17:33;100016.27;;;17.04;100.00
11499;BME280;5806;48.748;9.278;2023-07-28T00:20:01;100011.83;;;17.06;100.00
11499;BME280;5806;48.748;9.278;2023-07-28T00:22:28;100015.72;;;17.05;100.00
11499;BME280;5806;48.748;9.278;2023-07-28T00:24:56;100020.66;;;17.08;100.00
11499;BME280;5806;48.748;9.278;2023-07-28T00:27:23;100019.48;;;17.11;100.00
11499;BME280;5806;48.748;9.278;2023-07-28T00:29:51;100016.81;;;17.06;100.00
11499;BME280;5806;48.748;9.278;2023-07-28T00:32:18;100012.63;;;17.09;100.00
11499;BME280;5806;48.748;9.278;2023-07-28T00:34:46;100014.84;;;17.07;100.00
11499;BME280;5806;48.748;9.278;2023-07-28T00:37:14;100005.85;;;17.01;100.00
11499;BME280;5806;48.748;9.278;2023-07-28T00:39:41;100011.09;;;17.00;100.00
11499;BME280;5806;48.748;9.278;2023-07-28T00:42:08;100009.41;;;17.02;100.00
11499;BME280;5806;48.748;9.278;2023-07-28T00:44:36;100005.52;;;17.03;100.00
11499;BME280;5806;48.748;9.278;2023-07-28T00:47:04;100006.95;;;17.00;100.00
11499;BME280;5806;48.748;9.278;2023-07-28T00:49:32;100006.95;;;17.00;100.00
11499;BME280;5806;48.748;9.278;2023-07-28T00:51:59;99996.82;;;16.96;100.00
11499;BME280;5806;48.748;9.278;2023-07-28T00:54:27;100001.17;;;16.99;100.00
11499;BME280;5806;48.748;9.278;2023-07-28T00:56:55;100000.34;;;16.99;100.00
11499;BME280;5806;48.748;9.278;2023-07-28T00:59:22;100005.76;;;17.06;100.00
11499;BME280;5806;48.748;9.278;2023-07-28T01:01:50;100005.50;;;17.05;100.00
11499;BME280;5806;48.748;9.278;2023-07-28T01:04:17;100001.56;;;17.09;100.00
11499;BME280;5806;48.748;9.278;2023-07-28T01:06:53;100007.69;;;17.06;100.00
11499;BME280;5806;48.748;9.278;2023-07-28T01:09:24;100003.59;;;17.03;100.00
11499;BME280;5806;48.748;9.278;2023-07-28T01:11:58;99998.02;;;17.06;100.00
11499;BME280;5806;48.748;9.278;2023-07-28T01:14:27;100000.58;;;17.02;100.00
11499;BME280;5806;48.748;9.278;2023-07-28T01:16:54;99999.41;;;17.06;100.00
11499;BME280;5806;48.748;9.278;2023-07-28T01:19:22;99997.22;;;17.05;100.00
11499;BME280;5806;48.748;9.278;2023-07-28T01:22:12;100000.48;;;17.07;100.00
11499;BME280;5806;48.748;9.278;2023-07-28T01:24:55;99999.98;;;17.05;100.00
11499;BME280;5806;48.748;9.278;2023-07-28T01:27:18;99990.86;;;17.05;100.00
11499;BME280;5806;48.748;9.278;2023-07-28T01:29:48;99998.02;;;17.06;100.00
11499;BME280;5806;48.748;9.278;2023-07-28T01:32:15;99996.09;;;17.06;100.00
11499;BME280;5806;48.748;9.278;2023-07-28T01:34:43;99999.41;;;17.06;100.00
11499;BME280;5806;48.748;9.278;2023-07-28T01:37:10;100006.80;;;17.10;100.00
11499;BME280;5806;48.748;9.278;2023-07-28T01:39:38;100007.14;;;17.06;100.00
11499;BME280;5806;48.748;9.278;2023-07-28T01:42:05;99995.26;;;17.06;100.00
11499;BME280;5806;48.748;9.278;2023-07-28T01:44:33;99992.19;;;17.07;100.00
11499;BME280;5806;48.748;9.278;2023-07-28T01:47:00;99998.27;;;17.07;100.00
11499;BME280;5806;48.748;9.278;2023-07-28T01:49:28;99999.98;;;17.05;100.00
11499;BME280;5806;48.748;9.278;2023-07-28T01:51:55;99993.87;;;17.06;100.00
11499;BME280;5806;48.748;9.278;2023-07-28T01:54:22;99992.73;;;17.09;100.00
11499;BME280;5806;48.748;9.278;2023-07-28T01:56:50;99995.16;;;17.11;100.00
11499;BME280;5806;48.748;9.278;2023-07-28T01:59:17;99997.62;;;17.12;100.00
11499;BME280;5806;48.748;9.278;2023-07-28T02:01:45;99989.34;;;17.12;100.00
11499;BME280;5806;48.748;9.278;2023-07-28T02:04:13;99992.93;;;17.13;100.00
11499;BME280;5806;48.748;9.278;2023-07-28T02:06:41;99989.13;;;17.09;100.00
11499;BME280;5806;48.748;9.278;2023-07-28T02:09:09;99993.78;;;17.11;100.00
11499;BME280;5806;48.748;9.278;2023-07-28T02:11:36;99989.38;;;17.10;100.00
11499;BME280;5806;48.748;9.278;2023-07-28T02:14:04;99993.48;;;17.12;100.00
11499;BME280;5806;48.748;9.278;2023-07-28T02:16:31;99996.55;;;17.11;100.00
11499;BME280;5806;48.748;9.278;2023-07-28T02:18:58;99986.58;;;17.12;100.00
11499;BME280;5806;48.748;9.278;2023-07-28T02:21:26;99990.77;;;17.10;100.00
11499;BME280;5806;48.748;9.278;2023-07-28T02:23:54;99994.06;;;17.12;100.00
11499;BME280;5806;48.748;9.278;2023-07-28T02:26:21;99994.86;;;17.12;100.00
11499;BME280;5806;48.748;9.278;2023-07-28T02:28:49;99987.36;;;17.15;100.00
11499;BME280;5806;48.748;9.278;2023-07-28T02:31:16;99991.30;;;17.12;100.00
11499;BME280;5806;48.748;9.278;2023-07-28T02:33:44;99989.88;;;17.14;100.00
11499;BME280;5806;48.748;9.278;2023-07-28T02:36:11;99988.25;;;17.11;100.00
11499;BME280;5806;48.748;9.278;2023-07-28T02:38:38;99993.18;;;17.14;100.00
11499;BME280;5806;48.748;9.278;2023-07-28T02:41:06;99994.81;;;17.15;100.00
11499;BME280;5806;48.748;9.278;2023-07-28T02:43:33;99996.53;;;17.13;100.00
11499;BME280;5806;48.748;9.278;2023-07-28T02:46:01;99997.86;;;17.16;100.00
11499;BME280;5806;48.748;9.278;2023-07-28T02:48:28;99994.56;;;17.14;100.00
11499;BME280;5806;48.748;9.278;2023-07-28T02:50:56;99997.38;;;17.11;100.00
11499;BME280;5806;48.748;9.278;2023-07-28T02:53:23;99997.08;;;17.13;100.00
11499;BME280;5806;48.748;9.278;2023-07-28T02:55:51;99996.48;;;17.16;100.00
11499;BME280;5806;48.748;9.278;2023-07-28T02:58:18;99997.86;;;17.16;100.00
11499;BME280;5806;48.748;9.278;2023-07-28T03:00:45;100003.30;;;17.21;100.00
11499;BME280;5806;48.748;9.278;2023-07-28T03:03:13;100007.48;;;17.18;100.00
11499;BME280;5806;48.748;9.278;2023-07-28T03:05:40;100006.10;;;17.18;100.00
11499;BME280;5806;48.748;9.278;2023-07-28T03:08:08;100004.14;;;17.19;100.00
11499;BME280;5806;48.748;9.278;2023-07-28T03:10:35;100011.33;;;17.20;100.00
11499;BME280;5806;48.748;9.278;2023-07-28T03:13:03;100011.93;;;17.17;100.00
11499;BME280;5806;48.748;9.278;2023-07-28T03:15:30;100010.45;;;17.22;100.00
11499;BME280;5806;48.748;9.278;2023-07-28T03:17:57;100008.81;;;17.21;100.00
11499;BME280;5806;48.748;9.278;2023-07-28T03:20:25;100006.70;;;17.15;100.00
11499;BME280;5806;48.748;9.278;2023-07-28T03:22:52;100012.18;;;17.18;100.00
11499;BME280;5806;48.748;9.278;2023-07-28T03:25:21;100006.61;;;17.20;100.00
11499;BME280;5806;48.748;9.278;2023-07-28T03:27:48;100003.24;;;17.23;100.00
11499;BME280;5806;48.748;9.278;2023-07-28T03:30:16;100011.53;;;17.23;100.00
11499;BME280;5806;48.748;9.278;2023-07-28T03:32:43;100008.27;;;17.21;100.00
11499;BME280;5806;48.748;9.278;2023-07-28T03:35:10;100011.48;;;17.26;100.00
11499;BME280;5806;48.748;9.278;2023-07-28T03:37:38;100007.09;;;17.25;100.00
11499;BME280;5806;48.748;9.278;2023-07-28T03:40:06;100006.61;;;17.20;100.00
11499;BME280;5806;48.748;9.278;2023-07-28T03:42:34;100008.56;;;17.20;100.00
11499;BME280;5806;48.748;9.278;2023-07-28T03:45:02;100012.92;;;17.23;100.00
11499;BME280;5806;48.748;9.278;2023-07-28T03:47:29;100011.78;;;17.24;100.00
11499;BME280;5806;48.748;9.278;2023-07-28T03:49:56;100008.77;;;17.23;100.00
11499;BME280;5806;48.748;9.278;2023-07-28T03:52:24;100013.80;;;17.21;100.00
11499;BME280;5806;48.748;9.278;2023-07-28T03:54:51;100017.94;;;17.21;100.00
11499;BME280;5806;48.748;9.278;2023-07-28T03:57:19;100014.59;;;17.22;100.00
11499;BME280;5806;48.748;9.278;2023-07-28T03:59:46;100008.03;;;17.18;100.00
11499;BME280;5806;48.748;9.278;2023-07-28T04:02:14;100006.89;;;17.21;100.00
11499;BME280;5806;48.748;9.278;2023-07-28T04:04:41;100002.76;;;17.19;100.00
11499;BME280;5806;48.748;9.278;2023-07-28T04:07:08;100012.41;;;17.21;100.00
11499;BME280;5806;48.748;9.278;2023-07-28T04:09:36;100006.55;;;17.23;100.00
11499;BME280;5806;48.748;9.278;2023-07-28T04:12:04;100011.53;;;17.23;100.00
11499;BME280;5806;48.748;9.278;2023-07-28T04:14:31;100010.45;;;17.22;100.00
11499;BME280;5806;48.748;9.278;2023-07-28T04:16:58;100014.05;;;17.22;100.00
11499;BME280;5806;48.748;9.278;2023-07-28T04:19:26;100007.69;;;17.22;100.00
11499;BME280;5806;48.748;9.278;2023-07-28T04:21:56;100009.66;;;17.21;100.00
11499;BME280;5806;48.748;9.278;2023-07-28T04:24:23;100008.47;;;17.25;100.00
11499;BME280;5806;48.748;9.278;2023-07-28T04:26:51;100008.97;;;17.27;100.00
11499;BME280;5806;48.748;9.278;2023-07-28T04:29:19;100010.94;;;17.26;100.00
11499;BME280;5806;48.748;9.278;2023-07-28T04:31:46;100014.25;;;17.26;100.00
11499;BME280;5806;48.748;9.278;2023-07-28T04:34:14;100018.30;;;17.31;100.00
11499;BME280;5806;48.748;9.278;2023-07-28T04:36:41;100020.03;;;17.27;100.00
11499;BME280;5806;48.748;9.278;2023-07-28T04:39:08;100022.80;;;17.27;100.00
11499;BME280;5806;48.748;9.278;2023-07-28T04:41:36;100019.13;;;17.31;100.00
11499;BME280;5806;48.748;9.278;2023-07-28T04:44:03;100023.58;;;17.30;100.00
11499;BME280;5806;48.748;9.278;2023-07-28T04:46:31;100021.06;;;17.31;100.00
11499;BME280;5806;48.748;9.278;2023-07-28T04:48:58;100025.99;;;17.34;100.00
11499;BME280;5806;48.748;9.278;2023-07-28T04:51:25;100024.31;;;17.35;100.00
11499;BME280;5806;48.748;9.278;2023-07-28T04:53:53;100032.36;;;17.34;100.00
11499;BME280;5806;48.748;9.278;2023-07-28T04:56:20;100027.08;;;17.35;100.00
11499;BME280;5806;48.748;9.278;2023-07-28T04:58:48;100032.80;;;17.39;100.00
11499;BME280;5806;48.748;9.278;2023-07-28T05:01:15;100032.54;;;17.40;100.00
11499;BME280;5806;48.748;9.278;2023-07-28T05:03:43;100035.85;;;17.40;100.00
11499;BME280;5806;48.748;9.278;2023-07-28T05:06:10;100036.94;;;17.41;100.00
11499;BME280;5806;48.748;9.278;2023-07-28T05:08:37;100037.23;;;17.40;100.00
11499;BME280;5806;48.748;9.278;2023-07-28T05:11:05;100041.67;;;17.41;100.00
11499;BME280;5806;48.748;9.278;2023-07-28T05:13:32;100039.17;;;17.39;100.00
11499;BME280;5806;48.748;9.278;2023-07-28T05:16:00;100044.69;;;17.42;100.00
11499;BME280;5806;48.748;9.278;2023-07-28T05:18:27;100044.69;;;17.42;100.00
11499;BME280;5806;48.748;9.278;2023-07-28T05:20:54;100041.67;;;17.41;100.00
11499;BME280;5806;48.748;9.278;2023-07-28T05:23:22;100043.30;;;17.42;100.00
11499;BME280;5806;48.748;9.278;2023-07-28T05:25:49;100046.84;;;17.45;100.00
11499;BME280;5806;48.748;9.278;2023-07-28T05:28:17;100045.22;;;17.44;100.00
11499;BME280;5806;48.748;9.278;2023-07-28T05:30:44;100051.55;;;17.44;100.00
11499;BME280;5806;48.748;9.278;2023-07-28T05:33:12;100054.56;;;17.45;100.00
11499;BME280;5806;48.748;9.278;2023-07-28T05:35:39;100054.55;;;17.48;100.00
11499;BME280;5806;48.748;9.278;2023-07-28T05:38:06;100060.02;;;17.50;100.00
11499;BME280;5806;48.748;9.278;2023-07-28T05:40:34;100062.20;;;17.51;100.00
11499;BME280;5806;48.748;9.278;2023-07-28T05:43:01;100059.48;;;17.48;100.00
11499;BME280;5806;48.748;9.278;2023-07-28T05:45:29;100063.69;;;17.46;100.00
11499;BME280;5806;48.748;9.278;2023-07-28T05:47:56;100059.48;;;17.48;100.00
11499;BME280;5806;48.748;9.278;2023-07-28T05:50:24;100061.70;;;17.49;100.00
11499;BME280;5806;48.748;9.278;2023-07-28T05:52:51;100062.20;;;17.51;100.00
11499;BME280;5806;48.748;9.278;2023-07-28T05:55:19;100068.81;;;17.52;100.00
11499;BME280;5806;48.748;9.278;2023-07-28T05:57:46;100071.23;;;17.56;100.00
11499;BME280;5806;48.748;9.278;2023-07-28T06:00:14;100077.02;;;17.57;100.00
11499;BME280;5806;48.748;9.278;2023-07-28T06:02:41;100077.06;;;17.55;100.00
11499;BME280;5806;48.748;9.278;2023-07-28T06:05:09;100072.62;;;17.56;100.00
11499;BME280;5806;48.748;9.278;2023-07-28T06:07:36;100075.39;;;17.56;100.00
11499;BME280;5806;48.748;9.278;2023-07-28T06:10:04;100071.77;;;17.58;100.00
11499;BME280;5806;48.748;9.278;2023-07-28T06:12:31;100074.78;;;17.59;100.00
11499;BME280;5806;48.748;9.278;2023-07-28T06:14:59;100078.88;;;17.62;100.00
11499;BME280;5806;48.748;9.278;2023-07-28T06:17:26;100082.20;;;17.61;100.00
11499;BME280;5806;48.748;9.278;2023-07-28T06:19:55;100078.05;;;17.61;100.00
11499;BME280;5806;48.748;9.278;2023-07-28T06:22:22;100083.23;;;17.65;100.00
11499;BME280;5806;48.748;9.278;2023-07-28T06:24:49;100082.34;;;17.70;100.00
11499;BME280;5806;48.748;9.278;2023-07-28T06:27:17;100084.55;;;17.70;100.00
11499;BME280;5806;48.748;9.278;2023-07-28T06:29:45;100091.18;;;17.69;100.00
11499;BME280;5806;48.748;9.278;2023-07-28T06:32:12;100095.56;;;17.73;100.00
11499;BME280;5806;48.748;9.278;2023-07-28T06:34:40;100097.20;;;17.74;100.00
11499;BME280;5806;48.748;9.278;2023-07-28T06:37:07;100101.05;;;17.75;100.00
11499;BME280;5806;48.748;9.278;2023-07-28T06:39:35;100102.08;;;17.79;100.00
11499;BME280;5806;48.748;9.278;2023-07-28T06:42:02;100111.20;;;17.80;100.00
11499;BME280;5806;48.748;9.278;2023-07-28T06:44:30;100112.84;;;17.81;100.00
11499;BME280;5806;48.748;9.278;2023-07-28T06:46:57;100110.08;;;17.81;100.00
11499;BME280;5806;48.748;9.278;2023-07-28T06:49:25;100111.70;;;17.82;100.00
11499;BME280;5806;48.748;9.278;2023-07-28T06:51:52;100114.17;;;17.83;100.00
11499;BME280;5806;48.748;9.278;2023-07-28T06:54:20;100115.81;;;17.84;100.00
11499;BME280;5806;48.748;9.278;2023-07-28T06:56:47;100117.42;;;17.88;100.00
11499;BME280;5806;48.748;9.278;2023-07-28T06:59:14;100122.33;;;17.91;100.00
11499;BME280;5806;48.748;9.278;2023-07-28T07:01:42;100125.67;;;17.90;100.00
11499;BME280;5806;48.748;9.278;2023-07-28T07:04:09;100131.91;;;17.96;100.00
11499;BME280;5806;48.748;9.278;2023-07-28T07:06:37;100130.27;;;17.95;100.00
11499;BME280;5806;48.748;9.278;2023-07-28T07:09:04;100132.44;;;17.98;100.00
11499;BME280;5806;48.748;9.278;2023-07-28T07:11:32;100138.28;;;17.96;100.00
11499;BME280;5806;48.748;9.278;2023-07-28T07:14:00;100139.66;;;17.96;100.00
11499;BME280;5806;48.748;9.278;2023-07-28T07:16:27;100134.95;;;17.97;100.00
11499;BME280;5806;48.748;9.278;2023-07-28T07:18:54;100144.01;;;18.00;100.00
11499;BME280;5806;48.748;9.278;2023-07-28T07:21:22;100147.06;;;18.01;100.00
11499;BME280;5806;48.748;9.278;2023-07-28T07:23:49;100138.75;;;18.01;100.00
11499;BME280;5806;48.748;9.278;2023-07-28T07:26:17;100145.39;;;18.00;100.00
11499;BME280;5806;48.748;9.278;2023-07-28T07:28:44;100144.01;;;18.00;100.00
11499;BME280;5806;48.748;9.278;2023-07-28T07:31:14;100146.70;;;18.05;100.00
11499;BME280;5806;48.748;9.278;2023-07-28T07:33:42;100143.94;;;18.05;100.00
11499;BME280;5806;48.748;9.278;2023-07-28T07:36:16;100152.19;;;18.07;100.00
11499;BME280;5806;48.748;9.278;2023-07-28T07:38:44;100148.09;;;18.05;100.00
11499;BME280;5806;48.748;9.278;2023-07-28T07:41:18;100159.06;;;18.10;100.00
11499;BME280;5806;48.748;9.278;2023-07-28T07:43:50;100156.55;;;18.11;100.00
11499;BME280;5806;48.748;9.278;2023-07-28T07:46:19;100165.50;;;18.05;100.00
11499;BME280;5806;48.748;9.278;2023-07-28T07:48:46;100167.66;;;18.08;100.00
11499;BME280;5806;48.748;9.278;2023-07-28T07:51:14;100162.66;;;18.10;100.00
11499;BME280;5806;48.748;9.278;2023-07-28T07:53:42;100166.81;;;18.10;100.00
11499;BME280;5806;48.748;9.278;2023-07-28T07:56:10;100173.50;;;18.07;100.00
11499;BME280;5806;48.748;9.278;2023-07-28T07:58:37;100167.66;;;18.08;100.00
11499;BME280;5806;48.748;9.278;2023-07-28T08:01:05;100177.55;;;18.12;100.00
11499;BME280;5806;48.748;9.278;2023-07-28T08:03:33;100173.93;;;18.14;100.00
11499;BME280;5806;48.748;9.278;2023-07-28T08:06:02;100176.45;;;18.13;100.00
11499;BME280;5806;48.748;9.278;2023-07-28T08:08:30;100177.05;;;18.10;100.00
11499;BME280;5806;48.748;9.278;2023-07-28T08:10:58;100175.91;;;18.11;100.00
11499;BME280;5806;48.748;9.278;2023-07-28T08:13:26;100182.78;;;18.13;100.00
11499;BME280;5806;48.748;9.278;2023-07-28T08:15:54;100181.98;;;18.13;100.00
11499;BME280;5806;48.748;9.278;2023-07-28T08:18:22;100184.22;;;18.11;100.00
11499;BME280;5806;48.748;9.278;2023-07-28T08:20:49;100190.53;;;18.14;100.00
11499;BME280;5806;48.748;9.278;2023-07-28T08:23:17;100195.47;;;18.17;100.00
11499;BME280;5806;48.748;9.278;2023-07-28T08:25:44;100197.30;;;18.21;100.00
11499;BME280;5806;48.748;9.278;2023-07-28T08:28:12;100199.77;;;18.23;100.00
11499;BME280;5806;48.748;9.278;2023-07-28T08:30:39;100199.72;;;18.25;100.00
11499;BME280;5806;48.748;9.278;2023-07-28T08:33:07;100201.52;;;18.35;100.00
11499;BME280;5806;48.748;9.278;2023-07-28T08:35:34;100200.36;;;18.38;100.00
11499;BME280;5806;48.748;9.278;2023-07-28T08:38:02;100194.47;;;18.42;100.00
11499;BME280;5806;48.748;9.278;2023-07-28T08:40:29;100200.98;;;18.49;100.00
11499;BME280;5806;48.748;9.278;2023-07-28T08:42:57;100203.17;;;18.49;100.00
11499;BME280;5806;48.748;9.278;2023-07-28T08:45:24;100201.55;;;18.62;100.00
11499;BME280;5806;48.748;9.278;2023-07-28T08:47:52;100204.67;;;18.58;100.00
11499;BME280;5806;48.748;9.278;2023-07-28T08:50:19;100205.45;;;18.61;100.00
11499;BME280;5806;48.748;9.278;2023-07-28T08:52:47;100207.20;;;18.57;100.00
11499;BME280;5806;48.748;9.278;2023-07-28T08:55:16;100206.41;;;18.54;100.00
11499;BME280;5806;48.748;9.278;2023-07-28T08:57:44;100206.55;;;18.60;100.00
11499;BME280;5806;48.748;9.278;2023-07-28T09:00:12;100203.23;;;18.74;100.00
11499;BME280;5806;48.748;9.278;2023-07-28T09:02:43;100197.64;;;18.76;100.00
11499;BME280;5806;48.748;9.278;2023-07-28T09:05:18;100199.02;;;18.90;100.00
11499;BME280;5806;48.748;9.278;2023-07-28T09:07:46;100198.66;;;18.94;100.00
11499;BME280;5806;48.748;9.278;2023-07-28T09:10:18;100191.06;;;18.99;100.00
11499;BME280;5806;48.748;9.278;2023-07-28T09:12:49;100198.89;;;19.08;100.00
11499;BME280;5806;48.748;9.278;2023-07-28T09:15:17;100199.25;;;19.04;100.00
11499;BME280;5806;48.748;9.278;2023-07-28T09:17:45;100201.11;;;19.09;100.00
11499;BME280;5806;48.748;9.278;2023-07-28T09:20:14;100196.25;;;19.14;100.00
11499;BME280;5806;48.748;9.278;2023-07-28T09:22:43;100189.37;;;19.26;100.00
11499;BME280;5806;48.748;9.278;2023-07-28T09:25:15;100189.37;;;19.26;100.00
11499;BME280;5806;48.748;9.278;2023-07-28T09:27:50;100200.50;;;19.23;100.00
11499;BME280;5806;48.748;9.278;2023-07-28T09:30:18;100200.56;;;19.34;100.00
11499;BME280;5806;48.748;9.278;2023-07-28T09:32:51;100193.81;;;19.13;100.00
11499;BME280;5806;48.748;9.278;2023-07-28T09:35:19;100191.66;;;19.24;100.00
11499;BME280;5806;48.748;9.278;2023-07-28T09:37:50;100204.02;;;19.29;100.00
11499;BME280;5806;48.748;9.278;2023-07-28T09:40:21;100201.24;;;19.29;100.00
11499;BME280;5806;48.748;9.278;2023-07-28T09:42:50;100185.00;;;19.36;100.00
11499;BME280;5806;48.748;9.278;2023-07-28T09:45:19;100185.00;;;19.36;100.00
11499;BME280;5806;48.748;9.278;2023-07-28T09:47:50;100196.19;;;19.31;100.00
11499;BME280;5806;48.748;9.278;2023-07-28T09:50:21;100196.34;;;19.23;100.00
11499;BME280;5806;48.748;9.278;2023-07-28T09:52:53;100204.08;;;19.26;100.00
11499;BME280;5806;48.748;9.278;2023-07-28T09:55:21;100189.19;;;19.08;100.00
11499;BME280;5806;48.748;9.278;2023-07-28T09:57:51;100204.62;;;19.12;100.00
11499;BME280;5806;48.748;9.278;2023-07-28T10:00:20;100204.62;;;19.12;100.00
11499;BME280;5806;48.748;9.278;2023-07-28T10:02:48;100202.69;;;19.12;100.00
11499;BME280;5806;48.748;9.278;2023-07-28T10:05:16;100201.91;;;19.09;100.00
11499;BME280;5806;48.748;9.278;2023-07-28T10:07:45;100202.39;;;19.00;100.00
11499;BME280;5806;48.748;9.278;2023-07-28T10:10:14;100203.13;;;18.92;100.00
11499;BME280;5806;48.748;9.278;2023-07-28T10:12:47;100202.81;;;18.94;100.00
11499;BME280;5806;48.748;9.278;2023-07-28T10:15:20;100199.87;;;18.88;100.00
11499;BME280;5806;48.748;9.278;2023-07-28T10:17:53;100202.98;;;19.11;100.00
11499;BME280;5806;48.748;9.278;2023-07-28T10:20:29;100202.98;;;19.11;100.00
11499;BME280;5806;48.748;9.278;2023-07-28T10:23:16;100206.94;;;19.21;100.00
11499;BME280;5806;48.748;9.278;2023-07-28T10:25:45;100193.69;;;19.43;100.00
11499;BME280;5806;48.748;9.278;2023-07-28T10:28:30;100193.69;;;19.43;100.00
11499;BME280;5806;48.748;9.278;2023-07-28T10:30:59;100210.89;;;19.31;100.00
11499;BME280;5806;48.748;9.278;2023-07-28T10:33:37;100210.89;;;19.31;100.00
11499;BME280;5806;48.748;9.278;2023-07-28T10:39:15;100212.39;;;19.26;100.00
11499;BME280;5806;48.748;9.278;2023-07-28T10:42:07;100209.80;;;19.30;100.00
11499;BME280;5806;48.748;9.278;2023-07-28T10:44:35;100207.87;;;19.30;100.00
11499;BME280;5806;48.748;9.278;2023-07-28T10:47:08;100217.63;;;19.28;100.00
11499;BME280;5806;48.748;9.278;2023-07-28T10:49:35;100223.20;;;19.25;100.00
11499;BME280;5806;48.748;9.278;2023-07-28T10:52:03;100225.82;;;19.19;100.00
11499;BME280;5806;48.748;9.278;2023-07-28T10:54:32;100223.23;;;19.22;100.00
11499;BME280;5806;48.748;9.278;2023-07-28T10:57:02;100220.77;;;19.24;100.00
11499;BME280;5806;48.748;9.278;2023-07-28T10:59:30;100215.81;;;19.34;100.00
11499;BME280;5806;48.748;9.278;2023-07-28T11:01:57;100218.95;;;19.41;100.00
11499;BME280;5806;48.748;9.278;2023-07-28T11:04:25;100225.59;;;19.43;100.00
11499;BME280;5806;48.748;9.278;2023-07-28T11:06:52;100225.03;;;19.43;100.00
11499;BME280;5806;48.748;9.278;2023-07-28T11:09:22;100224.50;;;19.41;100.00
11499;BME280;5806;48.748;9.278;2023-07-28T11:11:53;100220.34;;;19.41;100.00
11499;BME280;5806;48.748;9.278;2023-07-28T11:14:20;100222.75;;;19.45;100.00
11499;BME280;5806;48.748;9.278;2023-07-28T11:16:48;100213.37;;;19.55;100.00
11499;BME280;5806;48.748;9.278;2023-07-28T11:19:16;100217.95;;;19.84;98.91
11499;BME280;5806;48.748;9.278;2023-07-28T11:21:45;100220.95;;;19.63;100.00
11499;BME280;5806;48.748;9.278;2023-07-28T11:24:21;100220.95;;;19.63;100.00
11499;BME280;5806;48.748;9.278;2023-07-28T11:26:45;100207.89;;;19.52;100.00
11499;BME280;5806;48.748;9.278;2023-07-28T11:29:13;100219.45;;;19.57;100.00
11499;BME280;5806;48.748;9.278;2023-07-28T11:31:41;100210.73;;;19.50;100.00
11499;BME280;5806;48.748;9.278;2023-07-28T11:34:16;100219.94;;;19.59;100.00
11499;BME280;5806;48.748;9.278;2023-07-28T11:36:44;100216.52;;;19.51;100.00
11499;BME280;5806;48.748;9.278;2023-07-28T11:39:13;100211.52;;;19.64;100.00
11499;BME280;5806;48.748;9.278;2023-07-28T11:41:41;100211.52;;;19.64;100.00
11499;BME280;5806;48.748;9.278;2023-07-28T11:44:10;100210.11;;;19.75;100.00
11499;BME280;5806;48.748;9.278;2023-07-28T11:46:42;100209.05;;;19.84;100.00
11499;BME280;5806;48.748;9.278;2023-07-28T11:49:19;100209.05;;;19.84;100.00
11499;BME280;5806;48.748;9.278;2023-07-28T11:51:54;100196.42;;;19.89;100.00
11499;BME280;5806;48.748;9.278;2023-07-28T11:54:25;100196.42;;;19.89;100.00
11499;BME280;5806;48.748;9.278;2023-07-28T11:56:57;100214.53;;;19.98;99.80
11499;BME280;5806;48.748;9.278;2023-07-28T11:59:24;100208.15;;;19.97;99.21
11499;BME280;5806;48.748;9.278;2023-07-28T12:01:53;100206.52;;;19.85;100.00
11499;BME280;5806;48.748;9.278;2023-07-28T12:04:23;100203.92;;;20.00;99.98
11499;BME280;5806;48.748;9.278;2023-07-28T12:07:06;100203.92;;;20.00;99.98
11499;BME280;5806;48.748;9.278;2023-07-28T12:12:22;100201.86;;;19.83;100.00
11499;BME280;5806;48.748;9.278;2023-07-28T12:14:50;100195.16;;;20.17;97.77
11499;BME280;5806;48.748;9.278;2023-07-28T12:17:20;100195.16;;;20.17;97.77
11499;BME280;5806;48.748;9.278;2023-07-28T12:20:02;100199.67;;;20.46;90.29
11499;BME280;5806;48.748;9.278;2023-07-28T12:22:41;100198.95;;;20.80;87.56
11499;BME280;5806;48.748;9.278;2023-07-28T12:25:10;100203.60;;;20.73;89.37
11499;BME280;5806;48.748;9.278;2023-07-28T12:27:37;100193.91;;;20.62;90.97
11499;BME280;5806;48.748;9.278;2023-07-28T12:30:06;100206.63;;;20.55;91.57
11499;BME280;5806;48.748;9.278;2023-07-28T12:32:35;100197.67;;;20.58;88.89
11499;BME280;5806;48.748;9.278;2023-07-28T12:35:02;100196.74;;;20.51;89.53
11499;BME280;5806;48.748;9.278;2023-07-28T12:37:30;100186.48;;;20.60;88.73
11499;BME280;5806;48.748;9.278;2023-07-28T12:39:57;100189.02;;;20.68;86.98
11499;BME280;5806;48.748;9.278;2023-07-28T12:42:24;100195.27;;;20.73;84.96
11499;BME280;5806;48.748;9.278;2023-07-28T12:44:52;100196.22;;;20.30;91.97
11499;BME280;5806;48.748;9.278;2023-07-28T12:47:19;100195.68;;;20.19;94.90
11499;BME280;5806;48.748;9.278;2023-07-28T12:49:47;100200.66;;;20.09;99.77
11499;BME280;5806;48.748;9.278;2023-07-28T12:52:14;100200.20;;;20.04;100.00
11499;BME280;5806;48.748;9.278;2023-07-28T12:54:42;100206.07;;;20.03;100.00
11499;BME280;5806;48.748;9.278;2023-07-28T12:57:10;100199.16;;;20.14;100.00
11499;BME280;5806;48.748;9.278;2023-07-28T12:59:39;100200.55;;;20.14;100.00
11499;BME280;5806;48.748;9.278;2023-07-28T13:02:06;100199.13;;;20.03;100.00
11499;BME280;5806;48.748;9.278;2023-07-28T13:04:33;100202.14;;;20.04;100.00